Time;durP1;ratioP1;P1;durP2;ratioP2;P2;SDS_P1;SDS_P2;PMS_P1;PMS_P2;Temp;Humidity;BMP_temperature;BMP_pressure;BME280_temperature;BME280_humidity;BME280_pressure;Samples;Min_cycle;Max_cycle;Signal;HPM_P1;HPM_P2
2023/09/24 00:00:41;;;;;;;1.73;0.80;;;10.00;99.90;;;;;;5061329;28;20509;-83
2023/09/24 00:03:08;;;;;;;1.63;1.00;;;10.00;99.90;;;;;;5064925;28;20451;-85
2023/09/24 00:05:40;;;;;;;1.67;1.00;;;10.00;99.90;;;;;;5059577;28;20472;-86
2023/09/24 00:08:08;;;;;;;1.57;1.03;;;10.00;99.90;;;;;;5058143;28;20452;-82
2023/09/24 00:10:36;;;;;;;1.10;0.80;;;10.10;99.90;;;;;;5062367;28;20445;-84
2023/09/24 00:13:03;;;;;;;1.37;1.00;;;10.10;99.90;;;;;;5063408;28;20468;-85
2023/09/24 00:15:33;;;;;;;0.80;0.80;;;10.20;99.90;;;;;;5062633;28;20444;-85
2023/09/24 00:18:00;;;;;;;0.80;0.80;;;10.20;99.90;;;;;;5058885;28;20953;-82
2023/09/24 00:20:27;;;;;;;2.43;1.63;;;10.30;99.90;;;;;;5062037;28;20498;-85
2023/09/24 00:22:54;;;;;;;2.03;0.80;;;10.30;99.90;;;;;;5069191;28;20468;-82
2023/09/24 00:25:23;;;;;;;4.70;1.10;;;10.40;99.90;;;;;;5066298;28;20480;-82
2023/09/24 00:27:51;;;;;;;0.80;0.80;;;10.50;99.90;;;;;;5059460;28;20447;-82
2023/09/24 00:30:18;;;;;;;4.43;1.10;;;10.50;99.90;;;;;;5073118;28;20457;-82
2023/09/24 00:32:45;;;;;;;2.40;1.27;;;10.50;99.90;;;;;;5072186;28;20467;-85
2023/09/24 00:35:12;;;;;;;0.97;0.97;;;10.50;99.90;;;;;;5084476;28;20463;-82
2023/09/24 00:37:39;;;;;;;3.00;1.20;;;10.50;99.90;;;;;;5082827;28;20448;-82
2023/09/24 00:40:10;;;;;;;0.80;0.70;;;10.60;99.90;;;;;;5073688;28;20445;-81
2023/09/24 00:42:37;;;;;;;3.60;1.17;;;10.50;99.90;;;;;;5066919;28;20460;-82
2023/09/24 00:45:10;;;;;;;1.90;0.90;;;10.50;99.90;;;;;;5068350;28;20464;-81
2023/09/24 00:47:39;;;;;;;3.07;1.10;;;10.60;99.90;;;;;;5067863;28;20538;-84
2023/09/24 00:50:09;;;;;;;0.77;0.70;;;10.60;99.90;;;;;;5069327;28;20447;-83
2023/09/24 00:52:36;;;;;;;3.67;1.00;;;10.60;99.90;;;;;;5064090;28;20460;-83
2023/09/24 00:55:06;;;;;;;0.97;0.87;;;10.60;99.90;;;;;;5065762;28;20468;-84
2023/09/24 00:57:34;;;;;;;1.07;0.73;;;10.60;99.90;;;;;;5066663;28;20463;-83
2023/09/24 01:00:08;;;;;;;0.57;0.53;;;10.60;99.90;;;;;;5068447;28;20468;-83
2023/09/24 01:02:37;;;;;;;0.70;0.70;;;10.60;99.90;;;;;;5066842;28;20475;-83
2023/09/24 01:05:05;;;;;;;1.17;0.80;;;10.60;99.90;;;;;;5064205;28;20460;-84
2023/09/24 01:07:32;;;;;;;1.23;1.00;;;10.60;99.90;;;;;;5063371;28;20448;-84
2023/09/24 01:09:59;;;;;;;2.00;0.60;;;10.70;99.90;;;;;;5061566;28;20549;-86
2023/09/24 01:12:29;;;;;;;0.80;0.80;;;10.70;99.90;;;;;;5065351;28;20502;-83
2023/09/24 01:14:57;;;;;;;2.53;0.67;;;10.70;99.90;;;;;;5068617;28;20448;-83
2023/09/24 01:17:24;;;;;;;0.70;0.60;;;10.70;99.90;;;;;;5060053;28;20546;-84
2023/09/24 01:19:55;;;;;;;1.23;0.83;;;10.60;99.90;;;;;;5060016;28;20473;-83
2023/09/24 01:22:23;;;;;;;0.93;0.60;;;10.60;99.90;;;;;;5059480;28;20448;-84
2023/09/24 01:24:50;;;;;;;1.77;0.60;;;10.50;99.90;;;;;;5069039;28;20551;-83
2023/09/24 01:27:17;;;;;;;1.43;0.60;;;10.40;99.90;;;;;;5058888;28;20476;-83
2023/09/24 01:29:44;;;;;;;0.90;0.80;;;10.40;99.90;;;;;;5057172;28;20515;-83
2023/09/24 01:32:12;;;;;;;3.17;0.70;;;10.40;99.90;;;;;;5060106;28;21018;-83
2023/09/24 01:34:38;;;;;;;0.90;0.70;;;10.30;99.90;;;;;;5061748;28;20503;-83
2023/09/24 01:37:09;;;;;;;1.27;0.60;;;10.30;99.90;;;;;;5061019;28;20988;-83
2023/09/24 01:39:37;;;;;;;0.93;0.80;;;10.10;99.90;;;;;;5059559;28;20503;-87
2023/09/24 01:42:05;;;;;;;1.27;0.80;;;10.10;99.90;;;;;;5052698;28;21306;-83
2023/09/24 01:44:33;;;;;;;1.23;0.60;;;10.10;99.90;;;;;;5067008;28;20710;-84
2023/09/24 01:47:01;;;;;;;1.20;0.60;;;10.00;99.90;;;;;;5058559;28;20522;-85
2023/09/24 01:49:31;;;;;;;0.70;0.60;;;10.00;99.90;;;;;;5061180;28;20479;-86
2023/09/24 01:51:58;;;;;;;0.63;0.63;;;9.90;99.90;;;;;;5050925;28;20477;-82
2023/09/24 01:54:25;;;;;;;0.60;0.60;;;9.80;99.90;;;;;;5065140;28;20451;-87
2023/09/24 01:56:54;;;;;;;0.60;0.60;;;9.80;99.90;;;;;;5064579;28;20452;-86
2023/09/24 01:59:21;;;;;;;1.10;0.70;;;9.90;99.90;;;;;;5059334;28;20466;-83
2023/09/24 02:01:48;;;;;;;5.40;0.77;;;9.80;99.90;;;;;;5057518;28;20923;-84
2023/09/24 02:04:16;;;;;;;0.60;0.60;;;9.90;99.90;;;;;;5070836;28;20500;-84
2023/09/24 02:06:43;;;;;;;3.63;0.60;;;9.90;99.90;;;;;;5081538;28;20483;-83
2023/09/24 02:09:13;;;;;;;0.80;0.73;;;9.80;99.90;;;;;;5072946;28;20445;-84
2023/09/24 02:11:40;;;;;;;1.23;0.80;;;9.90;99.90;;;;;;5070494;28;20525;-83
2023/09/24 02:14:08;;;;;;;0.80;0.80;;;9.90;99.90;;;;;;5070155;28;20493;-83
2023/09/24 02:16:36;;;;;;;0.90;0.70;;;9.90;99.90;;;;;;5066199;28;20456;-83
2023/09/24 02:19:04;;;;;;;1.10;0.80;;;9.80;99.90;;;;;;5064067;28;20464;-84
2023/09/24 02:21:31;;;;;;;0.73;0.73;;;9.90;99.90;;;;;;5065951;28;20803;-84
2023/09/24 02:23:59;;;;;;;1.67;0.83;;;9.80;99.90;;;;;;5065407;28;21003;-86
2023/09/24 02:26:25;;;;;;;2.03;1.20;;;9.80;99.90;;;;;;5065293;28;20568;-83
2023/09/24 02:28:53;;;;;;;2.07;0.87;;;9.80;99.90;;;;;;5059202;28;20444;-83
2023/09/24 02:31:21;;;;;;;0.70;0.67;;;9.80;99.90;;;;;;5065458;28;20513;-85
2023/09/24 02:33:48;;;;;;;1.00;0.70;;;9.80;99.90;;;;;;5059867;28;20436;-84
2023/09/24 02:36:15;;;;;;;0.97;0.67;;;9.80;99.90;;;;;;5065948;28;20502;-82
2023/09/24 02:38:43;;;;;;;0.70;0.70;;;9.90;99.90;;;;;;5059627;28;20464;-86
2023/09/24 02:41:11;;;;;;;0.90;0.80;;;10.00;99.90;;;;;;5057965;28;20468;-87
2023/09/24 02:43:38;;;;;;;0.77;0.67;;;10.00;99.90;;;;;;5061756;28;20492;-82
2023/09/24 02:46:05;;;;;;;2.50;0.90;;;10.10;99.90;;;;;;5062154;28;20484;-84
2023/09/24 02:48:35;;;;;;;1.87;0.70;;;10.10;99.90;;;;;;5066128;28;20463;-83
2023/09/24 02:51:08;;;;;;;2.33;1.20;;;10.10;99.90;;;;;;5049926;28;20567;-83
2023/09/24 02:53:35;;;;;;;1.60;0.90;;;10.20;99.90;;;;;;5061052;28;20471;-85
2023/09/24 02:56:04;;;;;;;1.53;0.83;;;10.20;99.90;;;;;;5054078;28;20866;-83
2023/09/24 02:58:31;;;;;;;1.53;0.97;;;10.30;99.90;;;;;;5062083;28;20531;-85
2023/09/24 03:00:59;;;;;;;0.70;0.60;;;10.30;99.90;;;;;;5064726;28;20488;-84
2023/09/24 03:03:26;;;;;;;1.20;0.80;;;10.30;99.90;;;;;;5061850;28;20887;-86
2023/09/24 03:05:55;;;;;;;0.70;0.70;;;10.40;99.90;;;;;;5066833;28;20831;-83
2023/09/24 03:08:23;;;;;;;2.30;1.03;;;10.40;99.90;;;;;;5067077;28;20440;-84
2023/09/24 03:10:51;;;;;;;1.37;0.80;;;10.40;99.90;;;;;;5087108;28;20533;-83
2023/09/24 03:13:18;;;;;;;0.70;0.70;;;10.40;99.90;;;;;;5087065;28;20490;-83
2023/09/24 03:15:45;;;;;;;1.07;0.97;;;10.50;99.90;;;;;;5073861;28;20487;-82
2023/09/24 03:18:12;;;;;;;1.67;0.80;;;10.50;99.90;;;;;;5065361;28;20517;-83
2023/09/24 03:20:39;;;;;;;1.50;0.80;;;10.50;99.90;;;;;;5070319;28;20530;-84
2023/09/24 03:23:09;;;;;;;1.33;0.73;;;10.50;99.90;;;;;;5070062;28;20471;-85
2023/09/24 03:25:37;;;;;;;1.23;1.00;;;10.50;99.90;;;;;;5068616;28;20467;-84
2023/09/24 03:28:05;;;;;;;1.47;0.80;;;10.60;99.90;;;;;;5070715;28;20540;-84
2023/09/24 03:30:32;;;;;;;1.10;1.00;;;10.50;99.90;;;;;;5069979;28;20436;-84
2023/09/24 03:33:00;;;;;;;1.23;0.80;;;10.50;99.90;;;;;;5061286;28;20467;-87
2023/09/24 03:35:28;;;;;;;1.73;1.00;;;10.50;99.90;;;;;;5070252;28;20878;-85
2023/09/24 03:37:56;;;;;;;2.70;0.90;;;10.50;99.90;;;;;;5070445;28;20996;-85
2023/09/24 03:40:26;;;;;;;1.30;1.00;;;10.50;99.90;;;;;;5069168;28;20472;-85
2023/09/24 03:42:54;;;;;;;1.17;0.73;;;10.50;99.90;;;;;;5069244;28;20452;-85
2023/09/24 03:45:23;;;;;;;1.10;0.80;;;10.50;99.90;;;;;;5070006;28;20467;-89
2023/09/24 03:47:51;;;;;;;0.93;0.70;;;10.60;99.90;;;;;;5060747;28;20484;-88
2023/09/24 03:50:19;;;;;;;1.67;1.40;;;10.60;99.90;;;;;;5064369;28;21237;-84
2023/09/24 03:52:47;;;;;;;1.00;0.90;;;10.70;99.90;;;;;;5059744;28;20859;-85
2023/09/24 03:55:15;;;;;;;0.80;0.80;;;10.70;99.90;;;;;;5070562;28;20881;-83
2023/09/24 03:57:44;;;;;;;1.00;0.80;;;10.70;99.90;;;;;;5064288;28;20950;-85
2023/09/24 04:00:14;;;;;;;1.87;0.90;;;10.60;99.90;;;;;;5069570;28;20467;-85
2023/09/24 04:02:40;;;;;;;0.87;0.80;;;10.60;99.90;;;;;;5064834;28;20490;-85
2023/09/24 04:05:10;;;;;;;1.10;0.80;;;10.60;99.90;;;;;;5065352;28;20521;-86
2023/09/24 04:07:38;;;;;;;1.70;0.80;;;10.60;99.90;;;;;;5065085;28;20479;-84
2023/09/24 04:10:06;;;;;;;0.97;0.90;;;10.50;99.90;;;;;;5065950;28;20464;-85
2023/09/24 04:12:34;;;;;;;2.10;0.90;;;10.50;99.90;;;;;;5053807;28;20461;-83
2023/09/24 04:15:03;;;;;;;1.47;0.77;;;10.40;99.90;;;;;;5067715;28;20954;-85
2023/09/24 04:17:31;;;;;;;1.33;1.00;;;10.30;99.90;;;;;;5068687;28;20448;-85
2023/09/24 04:19:58;;;;;;;0.90;0.90;;;10.30;99.90;;;;;;5065481;28;20477;-86
2023/09/24 04:22:25;;;;;;;1.37;0.97;;;10.20;99.90;;;;;;5068876;28;20454;-90
2023/09/24 04:24:54;;;;;;;0.90;0.80;;;10.20;99.90;;;;;;5064742;28;20549;-85
2023/09/24 04:27:21;;;;;;;2.03;0.80;;;10.20;99.90;;;;;;5069848;28;20480;-89
2023/09/24 04:29:48;;;;;;;1.60;0.80;;;10.10;99.90;;;;;;5068040;28;20475;-85
2023/09/24 04:32:16;;;;;;;1.07;0.90;;;10.10;99.90;;;;;;5065778;28;21001;-85
2023/09/24 04:34:45;;;;;;;1.00;0.70;;;10.00;99.90;;;;;;5070864;28;20439;-85
2023/09/24 04:37:12;;;;;;;1.10;0.80;;;10.00;99.90;;;;;;5076689;28;20535;-84
2023/09/24 04:39:39;;;;;;;4.93;0.80;;;9.90;99.90;;;;;;5071076;28;20532;-88
2023/09/24 04:42:08;;;;;;;1.10;0.60;;;9.90;99.90;;;;;;5076820;28;20527;-85
2023/09/24 04:44:35;;;;;;;1.73;0.80;;;9.90;99.90;;;;;;5081843;28;20483;-86
2023/09/24 04:47:02;;;;;;;1.53;1.43;;;9.90;99.90;;;;;;5078434;28;20506;-85
2023/09/24 04:49:31;;;;;;;1.00;1.00;;;9.80;99.90;;;;;;5063948;28;20535;-85
2023/09/24 04:51:58;;;;;;;1.93;1.03;;;9.80;99.90;;;;;;5067845;28;20993;-83
2023/09/24 04:54:25;;;;;;;0.70;0.70;;;9.80;99.90;;;;;;5062915;28;21010;-86
2023/09/24 04:56:52;;;;;;;1.30;0.90;;;9.80;99.90;;;;;;5068693;28;20526;-86
2023/09/24 04:59:19;;;;;;;2.13;1.17;;;9.80;99.90;;;;;;5069303;28;20943;-85
2023/09/24 05:01:46;;;;;;;0.97;0.73;;;9.80;99.90;;;;;;5067267;28;20456;-85
2023/09/24 05:04:13;;;;;;;2.40;1.33;;;9.80;99.90;;;;;;5066071;28;20460;-84
2023/09/24 05:06:41;;;;;;;1.23;1.13;;;9.70;99.90;;;;;;5068038;28;20472;-82
2023/09/24 05:09:08;;;;;;;1.10;1.00;;;9.70;99.90;;;;;;5065287;28;20459;-85
2023/09/24 05:11:35;;;;;;;2.00;1.60;;;9.70;99.90;;;;;;5065579;28;20509;-85
2023/09/24 05:14:03;;;;;;;1.30;1.20;;;9.70;99.90;;;;;;5064778;28;20464;-81
2023/09/24 05:16:31;;;;;;;3.60;1.30;;;9.70;99.90;;;;;;5062305;28;20462;-84
2023/09/24 05:19:02;;;;;;;3.37;1.00;;;9.70;99.90;;;;;;5064822;28;20452;-85
2023/09/24 05:21:30;;;;;;;1.50;1.10;;;9.70;99.90;;;;;;5064438;28;20977;-81
2023/09/24 05:23:58;;;;;;;1.77;1.20;;;9.70;99.90;;;;;;5069861;28;21209;-82
2023/09/24 05:26:25;;;;;;;1.37;1.27;;;9.70;99.90;;;;;;5066577;28;20440;-83
2023/09/24 05:28:52;;;;;;;1.27;1.07;;;9.70;99.90;;;;;;5058154;28;20490;-81
2023/09/24 05:31:19;;;;;;;1.77;1.60;;;9.70;99.90;;;;;;5062764;28;20459;-82
2023/09/24 05:33:47;;;;;;;1.63;0.97;;;9.70;99.90;;;;;;5060748;28;20471;-83
2023/09/24 05:36:14;;;;;;;2.63;1.70;;;9.70;99.90;;;;;;5066040;28;20472;-81
2023/09/24 05:38:41;;;;;;;1.70;0.90;;;9.70;99.90;;;;;;5064612;28;20459;-84
2023/09/24 05:41:09;;;;;;;0.97;0.83;;;9.70;99.90;;;;;;5068152;28;20464;-81
2023/09/24 05:43:38;;;;;;;0.90;0.90;;;9.70;99.90;;;;;;5068028;28;20468;-82
2023/09/24 05:46:05;;;;;;;3.03;1.70;;;9.70;99.90;;;;;;5065736;28;20465;-83
2023/09/24 05:48:32;;;;;;;1.33;1.17;;;9.70;99.90;;;;;;5068114;28;20483;-83
2023/09/24 05:51:04;;;;;;;2.00;1.30;;;9.70;99.90;;;;;;5055449;28;20491;-81
2023/09/24 05:53:32;;;;;;;4.87;1.73;;;9.80;99.90;;;;;;5062598;28;20511;-81
2023/09/24 05:55:59;;;;;;;1.33;1.23;;;9.90;99.90;;;;;;5061280;28;20471;-83
2023/09/24 05:58:27;;;;;;;2.07;1.40;;;9.90;99.90;;;;;;5066251;28;20463;-82
2023/09/24 06:00:56;;;;;;;1.43;1.33;;;10.00;99.90;;;;;;5058027;28;20449;-81
2023/09/24 06:03:23;;;;;;;1.60;1.47;;;10.00;99.90;;;;;;5063210;28;20950;-81
2023/09/24 06:05:50;;;;;;;2.83;1.83;;;10.00;99.90;;;;;;5061173;28;20463;-82
2023/09/24 06:08:17;;;;;;;2.23;2.03;;;10.10;99.90;;;;;;5056449;28;20550;-82
2023/09/24 06:10:45;;;;;;;1.77;1.67;;;10.10;99.90;;;;;;5058809;28;20476;-82
2023/09/24 06:13:13;;;;;;;4.50;2.20;;;10.10;99.90;;;;;;5063603;28;20851;-82
2023/09/24 06:15:42;;;;;;;2.17;1.97;;;10.20;99.90;;;;;;5063329;28;20456;-81
2023/09/24 06:18:10;;;;;;;4.53;2.33;;;10.20;99.90;;;;;;5062665;28;20487;-84
2023/09/24 06:20:40;;;;;;;2.00;1.80;;;10.20;99.90;;;;;;5066587;28;20463;-81
2023/09/24 06:23:07;;;;;;;2.13;2.03;;;10.20;99.90;;;;;;5066443;28;20502;-81
2023/09/24 06:25:34;;;;;;;1.67;1.57;;;10.30;99.90;;;;;;5064630;28;20464;-81
2023/09/24 06:28:04;;;;;;;2.13;1.67;;;10.20;99.90;;;;;;5060171;28;20578;-83
2023/09/24 06:30:31;;;;;;;1.80;1.70;;;10.20;99.90;;;;;;5064259;28;20502;-82
2023/09/24 06:32:59;;;;;;;1.60;1.37;;;10.20;99.90;;;;;;5059635;28;21002;-82
2023/09/24 06:35:26;;;;;;;1.70;1.60;;;10.20;99.90;;;;;;5059757;28;20532;-81
2023/09/24 06:37:53;;;;;;;1.53;1.43;;;10.20;99.90;;;;;;5065500;28;21191;-82
2023/09/24 06:40:20;;;;;;;1.73;1.63;;;10.20;99.90;;;;;;5062525;28;20951;-81
2023/09/24 06:42:48;;;;;;;3.43;1.90;;;10.20;99.90;;;;;;5062487;28;20427;-81
2023/09/24 06:45:15;;;;;;;1.50;1.30;;;10.20;99.90;;;;;;5057963;28;20448;-82
2023/09/24 06:47:42;;;;;;;2.93;1.77;;;10.20;99.90;;;;;;5066245;28;20819;-81
2023/09/24 06:50:11;;;;;;;1.63;1.53;;;10.30;99.90;;;;;;5035659;28;1185199;-81
2023/09/24 06:52:39;;;;;;;4.40;4.00;;;10.30;99.90;;;;;;5077573;28;20456;-81
2023/09/24 06:55:08;;;;;;;1.73;1.47;;;10.40;99.90;;;;;;5073558;28;20455;-81
2023/09/24 06:57:36;;;;;;;1.80;1.70;;;10.50;99.90;;;;;;5070311;28;20448;-81
2023/09/24 07:00:03;;;;;;;1.73;1.60;;;10.50;99.90;;;;;;5069717;28;20546;-81
2023/09/24 07:02:31;;;;;;;2.50;1.40;;;10.60;99.90;;;;;;5070773;28;20542;-81
2023/09/24 07:04:58;;;;;;;4.90;2.10;;;10.60;99.90;;;;;;5062928;28;20461;-82
2023/09/24 07:07:26;;;;;;;2.80;2.50;;;10.70;99.90;;;;;;5069096;28;21057;-82
2023/09/24 07:09:53;;;;;;;2.03;1.67;;;10.90;99.90;;;;;;5067517;28;20466;-84
2023/09/24 07:12:21;;;;;;;3.80;2.33;;;11.00;99.90;;;;;;5065188;28;20459;-81
2023/09/24 07:14:47;;;;;;;1.70;1.60;;;11.20;99.90;;;;;;5070175;28;20455;-81
2023/09/24 07:17:15;;;;;;;2.20;1.40;;;11.30;99.90;;;;;;5065828;28;20457;-85
2023/09/24 07:19:43;;;;;;;3.00;1.90;;;11.50;99.90;;;;;;5066533;28;20491;-83
2023/09/24 07:22:10;;;;;;;1.57;1.47;;;11.70;99.90;;;;;;5069713;28;20491;-81
2023/09/24 07:24:38;;;;;;;4.47;1.40;;;12.00;99.90;;;;;;5071003;28;20462;-82
2023/09/24 07:27:05;;;;;;;1.90;1.80;;;12.10;99.90;;;;;;5069990;28;20471;-81
2023/09/24 07:29:32;;;;;;;2.07;1.50;;;12.40;99.90;;;;;;5070592;28;20457;-82
2023/09/24 07:31:59;;;;;;;1.80;1.70;;;12.50;99.90;;;;;;5066294;28;20476;-81
2023/09/24 07:34:26;;;;;;;1.73;1.63;;;12.70;99.90;;;;;;5068154;28;20521;-81
2023/09/24 07:36:54;;;;;;;1.83;1.10;;;12.70;99.90;;;;;;5062825;28;20618;-81
2023/09/24 07:39:21;;;;;;;2.10;1.53;;;12.80;99.90;;;;;;5068404;28;20508;-81
2023/09/24 07:41:49;;;;;;;1.43;1.33;;;12.90;99.90;;;;;;5066187;28;20468;-82
2023/09/24 07:44:18;;;;;;;2.60;2.40;;;13.00;99.90;;;;;;5065528;28;20684;-81
2023/09/24 07:46:45;;;;;;;2.23;1.23;;;13.10;99.90;;;;;;5067193;28;20478;-81
2023/09/24 07:49:13;;;;;;;1.40;1.30;;;13.20;99.90;;;;;;5056380;28;20538;-82
2023/09/24 07:51:39;;;;;;;1.60;1.50;;;13.50;99.90;;;;;;5064935;28;20572;-79
2023/09/24 07:54:08;;;;;;;2.10;1.90;;;13.70;99.90;;;;;;5055421;28;20870;-82
2023/09/24 07:56:38;;;;;;;1.10;1.00;;;13.90;99.90;;;;;;5063056;28;20457;-82
2023/09/24 07:59:06;;;;;;;1.40;1.30;;;14.00;99.90;;;;;;5063148;28;20490;-84
2023/09/24 08:01:33;;;;;;;2.70;1.00;;;14.10;99.90;;;;;;5059743;28;20463;-84
2023/09/24 08:04:01;;;;;;;2.50;1.70;;;14.40;99.90;;;;;;5062656;28;20453;-83
2023/09/24 08:06:28;;;;;;;2.17;1.97;;;14.60;99.90;;;;;;5068512;28;20462;-81
2023/09/24 08:08:55;;;;;;;2.60;1.57;;;14.70;99.90;;;;;;5068032;28;20559;-81
2023/09/24 08:11:23;;;;;;;1.10;1.00;;;14.70;99.90;;;;;;5063612;28;20469;-83
2023/09/24 08:13:50;;;;;;;1.97;1.70;;;14.60;99.90;;;;;;5071323;28;20953;-81
2023/09/24 08:16:18;;;;;;;1.00;0.90;;;14.70;99.90;;;;;;5070454;28;20473;-82
2023/09/24 08:18:45;;;;;;;1.60;1.20;;;14.80;99.90;;;;;;5079742;28;20444;-83
2023/09/24 08:21:12;;;;;;;1.53;1.40;;;14.90;99.90;;;;;;5078146;28;20524;-82
2023/09/24 08:23:39;;;;;;;2.77;1.00;;;14.90;99.90;;;;;;5082002;28;20456;-82
2023/09/24 08:26:06;;;;;;;1.00;1.00;;;15.00;99.90;;;;;;5070224;28;20510;-80
2023/09/24 08:28:33;;;;;;;2.50;1.30;;;15.00;99.90;;;;;;5069449;28;20487;-81
2023/09/24 08:31:00;;;;;;;1.37;1.03;;;15.20;99.90;;;;;;5069933;28;20461;-82
2023/09/24 08:33:29;;;;;;;8.23;1.40;;;15.30;99.90;;;;;;5068245;28;20452;-81
2023/09/24 08:35:56;;;;;;;2.00;1.30;;;15.30;99.90;;;;;;5061027;28;20501;-83
2023/09/24 08:38:23;;;;;;;1.73;1.20;;;15.30;99.90;;;;;;5066551;28;20468;-82
2023/09/24 08:40:50;;;;;;;1.20;1.10;;;15.10;99.90;;;;;;5068841;28;20435;-82
2023/09/24 08:43:17;;;;;;;1.13;1.03;;;15.10;99.90;;;;;;5062698;28;20464;-85
2023/09/24 08:45:45;;;;;;;1.67;0.90;;;15.10;99.90;;;;;;5059986;28;20509;-83
2023/09/24 08:48:13;;;;;;;2.10;2.00;;;15.20;99.90;;;;;;5067873;28;20558;-83
2023/09/24 08:50:43;;;;;;;1.10;1.00;;;15.10;99.90;;;;;;5057034;28;20485;-86
2023/09/24 08:53:11;;;;;;;1.40;1.30;;;15.20;99.90;;;;;;5065306;28;20509;-84
2023/09/24 08:55:40;;;;;;;2.07;0.90;;;15.10;99.90;;;;;;5059582;28;20534;-81
2023/09/24 08:58:07;;;;;;;1.40;0.90;;;15.30;99.90;;;;;;5062087;28;20455;-82
2023/09/24 09:00:34;;;;;;;5.03;1.00;;;15.30;99.10;;;;;;5062144;28;20490;-82
2023/09/24 09:03:03;;;;;;;1.43;0.90;;;15.40;99.90;;;;;;5058720;28;20476;-80
2023/09/24 09:05:34;;;;;;;2.20;1.27;;;15.50;99.90;;;;;;5059894;28;20493;-81
2023/09/24 09:08:03;;;;;;;1.53;0.93;;;15.60;99.90;;;;;;5066416;28;20492;-83
2023/09/24 09:10:32;;;;;;;0.93;0.80;;;15.70;99.20;;;;;;5062289;28;20463;-81
2023/09/24 09:13:06;;;;;;;0.70;0.60;;;15.50;97.50;;;;;;5061322;28;20444;-81
2023/09/24 09:15:33;;;;;;;0.70;0.50;;;15.70;95.10;;;;;;5060782;28;20449;-82
2023/09/24 09:18:01;;;;;;;13.47;1.17;;;15.70;94.20;;;;;;5062351;28;20461;-81
2023/09/24 09:20:42;;;;;;;0.97;0.97;;;15.70;95.70;;;;;;5065399;28;20535;-84
2023/09/24 09:23:13;;;;;;;15.50;0.90;;;15.80;94.50;;;;;;5069293;28;20511;-81
2023/09/24 09:25:52;;;;;;;1.03;0.60;;;16.00;96.60;;;;;;5066492;28;20830;-80
2023/09/24 09:28:23;;;;;;;1.80;1.13;;;16.00;96.00;;;;;;5066951;28;21188;-82
2023/09/24 09:31:01;;;;;;;1.00;0.60;;;16.10;95.40;;;;;;5066949;28;20457;-82
2023/09/24 09:33:29;;;;;;;2.20;0.60;;;16.30;92.90;;;;;;5067178;28;20461;-86
2023/09/24 09:35:57;;;;;;;0.60;0.57;;;16.10;89.70;;;;;;5052627;28;21019;-81
2023/09/24 09:38:27;;;;;;;1.47;0.60;;;16.00;93.80;;;;;;5064198;28;20471;-84
2023/09/24 09:40:55;;;;;;;0.70;0.50;;;16.20;91.60;;;;;;5067614;28;20881;-80
2023/09/24 09:43:27;;;;;;;0.60;0.50;;;16.30;92.30;;;;;;5065410;28;20974;-82
2023/09/24 09:45:55;;;;;;;0.97;0.53;;;16.30;93.00;;;;;;5072898;28;20734;-81
2023/09/24 09:48:30;;;;;;;4.73;0.83;;;16.50;93.30;;;;;;5086446;28;20745;-81
2023/09/24 09:51:02;;;;;;;0.80;0.60;;;16.80;93.70;;;;;;5082073;28;20475;-80
2023/09/24 09:53:35;;;;;;;1.33;0.93;;;16.70;92.60;;;;;;5087104;28;20473;-81
2023/09/24 09:56:05;;;;;;;0.67;0.63;;;16.60;88.30;;;;;;5069631;28;20513;-82
2023/09/24 09:58:34;;;;;;;1.00;0.90;;;16.50;87.30;;;;;;5068109;28;20447;-82
2023/09/24 10:01:02;;;;;;;0.60;0.50;;;16.50;91.30;;;;;;5066628;28;20524;-81
2023/09/24 10:03:32;;;;;;;0.90;0.83;;;16.60;91.00;;;;;;5067290;28;20545;-82
2023/09/24 10:06:01;;;;;;;1.10;0.50;;;16.70;88.40;;;;;;5066137;28;20465;-82
2023/09/24 10:08:53;;;;;;;3.23;0.83;;;16.70;81.70;;;;;;5067483;28;20478;-81
2023/09/24 10:11:55;;;;;;;0.63;0.47;;;16.80;90.20;;;;;;5059107;28;20462;-81
2023/09/24 10:14:33;;;;;;;1.00;0.53;;;16.90;83.20;;;;;;5014991;28;20550;-81
2023/09/24 10:17:22;;;;;;;0.70;0.50;;;17.00;84.30;;;;;;5016769;28;20465;-81
2023/09/24 10:19:51;;;;;;;1.20;0.60;;;17.10;83.50;;;;;;5041679;28;20487;-83
2023/09/24 10:22:29;;;;;;;0.70;0.50;;;17.00;82.80;;;;;;5067452;28;20862;-82
2023/09/24 10:24:57;;;;;;;0.90;0.43;;;16.90;75.10;;;;;;5067846;28;21054;-81
2023/09/24 10:27:28;;;;;;;1.17;0.57;;;16.90;75.70;;;;;;5059310;28;20520;-81
2023/09/24 10:30:09;;;;;;;0.70;0.60;;;17.00;78.30;;;;;;5066701;28;20487;-86
2023/09/24 10:32:51;;;;;;;2.80;0.50;;;17.20;80.00;;;;;;5066080;28;20443;-82
2023/09/24 10:35:20;;;;;;;3.70;0.60;;;17.20;76.90;;;;;;5063492;28;20506;-81
2023/09/24 10:38:03;;;;;;;2.47;0.43;;;17.30;74.90;;;;;;5066190;28;20505;-81
2023/09/24 10:40:33;;;;;;;1.07;0.50;;;17.20;74.30;;;;;;5061588;28;20546;-81
2023/09/24 10:43:17;;;;;;;3.23;1.13;;;17.40;83.00;;;;;;5064312;28;20532;-81
2023/09/24 10:45:45;;;;;;;0.60;0.40;;;17.30;78.50;;;;;;5069219;28;20548;-83
2023/09/24 10:48:13;;;;;;;0.50;0.40;;;17.30;76.70;;;;;;5064995;28;20442;-81
2023/09/24 10:50:41;;;;;;;1.33;0.60;;;17.40;77.60;;;;;;5062922;28;20581;-85
2023/09/24 10:53:09;;;;;;;0.60;0.50;;;17.60;75.10;;;;;;5066439;28;20557;-81
2023/09/24 10:55:41;;;;;;;0.90;0.63;;;17.80;70.70;;;;;;5061503;28;20567;-82
2023/09/24 10:58:13;;;;;;;0.80;0.50;;;17.80;75.70;;;;;;5064932;28;20452;-81
2023/09/24 11:00:41;;;;;;;0.70;0.53;;;17.70;68.30;;;;;;5066868;28;20517;-84
2023/09/24 11:03:10;;;;;;;1.00;0.50;;;17.90;72.70;;;;;;5060102;28;20503;-81
2023/09/24 11:05:47;;;;;;;1.47;0.63;;;18.10;69.80;;;;;;5059910;28;20468;-82
2023/09/24 11:08:15;;;;;;;2.00;0.57;;;18.20;68.60;;;;;;5057655;28;20463;-81
2023/09/24 11:10:48;;;;;;;1.67;0.70;;;18.00;67.80;;;;;;5060651;28;20573;-86
2023/09/24 11:13:15;;;;;;;1.10;0.60;;;18.10;66.00;;;;;;5054845;28;20467;-82
2023/09/24 11:15:42;;;;;;;1.23;1.03;;;18.40;69.20;;;;;;5075262;28;20684;-83
2023/09/24 11:18:11;;;;;;;0.83;0.50;;;18.50;67.40;;;;;;5081191;28;20508;-79
2023/09/24 11:20:38;;;;;;;2.53;0.50;;;18.30;70.40;;;;;;5076169;28;20950;-80
2023/09/24 11:23:08;;;;;;;0.70;0.50;;;18.00;60.40;;;;;;5079659;28;20922;-80
2023/09/24 11:25:36;;;;;;;0.80;0.70;;;17.60;65.40;;;;;;5068163;28;20464;-81
2023/09/24 11:28:06;;;;;;;0.90;0.80;;;17.80;69.10;;;;;;5065747;28;20520;-79
2023/09/24 11:30:43;;;;;;;0.97;0.50;;;18.30;62.20;;;;;;5064682;28;20613;-79
2023/09/24 11:33:16;;;;;;;1.03;0.60;;;18.50;56.10;;;;;;5069335;28;20459;-80
2023/09/24 11:35:43;;;;;;;0.73;0.67;;;18.50;58.60;;;;;;5067779;28;20472;-80
2023/09/24 11:38:10;;;;;;;0.60;0.60;;;18.30;56.50;;;;;;5068310;28;20454;-79
2023/09/24 11:40:39;;;;;;;1.07;0.60;;;18.50;60.70;;;;;;5070014;28;20508;-81
2023/09/24 11:43:12;;;;;;;1.13;0.50;;;18.90;59.60;;;;;;5069129;28;21112;-79
2023/09/24 11:45:42;;;;;;;0.77;0.47;;;18.70;53.20;;;;;;5069743;28;20452;-79
2023/09/24 11:48:10;;;;;;;3.20;0.50;;;18.80;52.90;;;;;;5068274;28;21111;-80
2023/09/24 11:50:38;;;;;;;2.23;1.10;;;18.60;54.70;;;;;;5067617;28;20495;-81
2023/09/24 11:53:06;;;;;;;3.17;2.13;;;18.10;54.70;;;;;;5064373;28;20544;-79
2023/09/24 11:55:33;;;;;;;0.70;0.60;;;18.00;55.30;;;;;;5064320;28;20448;-82
2023/09/24 11:58:00;;;;;;;0.90;0.60;;;18.00;56.80;;;;;;5067403;28;20444;-80
2023/09/24 12:00:28;;;;;;;1.63;0.90;;;17.90;60.50;;;;;;5067321;28;20449;-79
2023/09/24 12:02:55;;;;;;;2.60;0.90;;;17.70;59.80;;;;;;5068092;28;20459;-80
2023/09/24 12:05:22;;;;;;;1.50;0.60;;;17.90;57.60;;;;;;5061973;28;20464;-80
2023/09/24 12:07:50;;;;;;;0.60;0.50;;;17.90;59.30;;;;;;5066168;28;20501;-80
2023/09/24 12:10:21;;;;;;;0.83;0.50;;;18.10;61.10;;;;;;5066712;28;21044;-80
2023/09/24 12:12:48;;;;;;;1.83;0.70;;;18.40;57.30;;;;;;5060772;28;20467;-80
2023/09/24 12:15:15;;;;;;;1.93;0.50;;;18.50;55.10;;;;;;5066857;28;20501;-81
2023/09/24 12:17:44;;;;;;;0.90;0.57;;;18.20;53.80;;;;;;5062668;28;20515;-81
2023/09/24 12:20:12;;;;;;;0.73;0.70;;;18.40;55.30;;;;;;5068376;28;20447;-82
2023/09/24 12:22:41;;;;;;;1.90;1.00;;;18.30;55.10;;;;;;5069137;28;21030;-81
2023/09/24 12:25:10;;;;;;;6.00;0.50;;;18.20;59.40;;;;;;5069121;28;20578;-81
2023/09/24 12:27:37;;;;;;;3.27;0.50;;;17.90;61.00;;;;;;5067716;28;20537;-79
2023/09/24 12:30:07;;;;;;;2.30;0.80;;;17.70;58.80;;;;;;5068940;28;20523;-80
2023/09/24 12:32:35;;;;;;;0.80;0.70;;;17.60;62.50;;;;;;5069314;28;20513;-81
2023/09/24 12:35:04;;;;;;;4.60;0.70;;;17.50;65.60;;;;;;5067632;28;20499;-82
2023/09/24 12:37:33;;;;;;;0.80;0.50;;;17.50;65.20;;;;;;5070830;28;20452;-80
2023/09/24 12:40:00;;;;;;;0.63;0.40;;;17.50;65.10;;;;;;5069724;28;20455;-80
2023/09/24 12:42:30;;;;;;;0.73;0.60;;;17.50;64.80;;;;;;5069172;28;20471;-79
2023/09/24 12:44:58;;;;;;;0.60;0.40;;;17.80;69.10;;;;;;5078579;28;20451;-80
2023/09/24 12:47:25;;;;;;;1.33;0.57;;;17.90;65.20;;;;;;5080510;28;20460;-81
2023/09/24 12:49:55;;;;;;;1.93;0.70;;;18.10;64.60;;;;;;5079734;28;20525;-80
2023/09/24 12:52:24;;;;;;;0.90;0.60;;;18.20;61.60;;;;;;5075368;28;20505;-83
2023/09/24 12:54:51;;;;;;;0.93;0.70;;;18.20;60.70;;;;;;5067844;28;20451;-79